sensor_id;sensor_type;location;lat;lon;timestamp;P1;durP1;ratioP1;P2;durP2;ratioP2
7110;SDS011;3597;42.650;23.386;2022-12-07T00:01:07;3.57;;;3.37;;
7110;SDS011;3597;42.650;23.386;2022-12-07T00:03:35;4.30;;;4.10;;
7110;SDS011;3597;42.650;23.386;2022-12-07T00:06:01;4.80;;;4.60;;
7110;SDS011;3597;42.650;23.386;2022-12-07T00:08:27;4.43;;;4.13;;
7110;SDS011;3597;42.650;23.386;2022-12-07T00:10:52;4.47;;;4.17;;
7110;SDS011;3597;42.650;23.386;2022-12-07T00:13:18;3.97;;;3.77;;
7110;SDS011;3597;42.650;23.386;2022-12-07T00:15:43;4.23;;;3.93;;
7110;SDS011;3597;42.650;23.386;2022-12-07T00:18:09;4.83;;;3.97;;
7110;SDS011;3597;42.650;23.386;2022-12-07T00:20:34;4.17;;;3.87;;
7110;SDS011;3597;42.650;23.386;2022-12-07T00:23:00;4.17;;;3.83;;
7110;SDS011;3597;42.650;23.386;2022-12-07T00:25:25;7.03;;;4.13;;
7110;SDS011;3597;42.650;23.386;2022-12-07T00:27:52;4.97;;;4.37;;
7110;SDS011;3597;42.650;23.386;2022-12-07T00:30:18;3.70;;;3.50;;
7110;SDS011;3597;42.650;23.386;2022-12-07T00:32:44;3.27;;;3.07;;
7110;SDS011;3597;42.650;23.386;2022-12-07T00:35:09;3.63;;;3.43;;
7110;SDS011;3597;42.650;23.386;2022-12-07T00:37:34;3.27;;;3.13;;
7110;SDS011;3597;42.650;23.386;2022-12-07T00:40:00;4.03;;;3.83;;
7110;SDS011;3597;42.650;23.386;2022-12-07T00:42:25;3.47;;;3.30;;
7110;SDS011;3597;42.650;23.386;2022-12-07T00:44:50;3.43;;;3.20;;
7110;SDS011;3597;42.650;23.386;2022-12-07T00:47:16;4.83;;;3.40;;
7110;SDS011;3597;42.650;23.386;2022-12-07T00:49:41;3.70;;;3.40;;
7110;SDS011;3597;42.650;23.386;2022-12-07T00:52:06;3.27;;;3.07;;
7110;SDS011;3597;42.650;23.386;2022-12-07T00:54:32;3.93;;;3.67;;
7110;SDS011;3597;42.650;23.386;2022-12-07T00:56:57;4.17;;;3.90;;
7110;SDS011;3597;42.650;23.386;2022-12-07T00:59:22;3.83;;;3.63;;
7110;SDS011;3597;42.650;23.386;2022-12-07T01:01:48;3.53;;;3.33;;
7110;SDS011;3597;42.650;23.386;2022-12-07T01:04:13;3.77;;;3.50;;
7110;SDS011;3597;42.650;23.386;2022-12-07T01:06:38;3.63;;;3.50;;
7110;SDS011;3597;42.650;23.386;2022-12-07T01:09:04;4.13;;;3.70;;
7110;SDS011;3597;42.650;23.386;2022-12-07T01:11:31;3.47;;;3.33;;
7110;SDS011;3597;42.650;23.386;2022-12-07T01:13:57;3.40;;;3.20;;
7110;SDS011;3597;42.650;23.386;2022-12-07T01:16:24;3.90;;;3.70;;
7110;SDS011;3597;42.650;23.386;2022-12-07T01:18:51;3.00;;;2.90;;
7110;SDS011;3597;42.650;23.386;2022-12-07T01:21:21;3.20;;;3.10;;
7110;SDS011;3597;42.650;23.386;2022-12-07T01:23:51;3.30;;;3.20;;
7110;SDS011;3597;42.650;23.386;2022-12-07T01:26:18;3.00;;;2.67;;
7110;SDS011;3597;42.650;23.386;2022-12-07T01:28:46;3.00;;;2.80;;
7110;SDS011;3597;42.650;23.386;2022-12-07T01:31:18;2.60;;;2.50;;
7110;SDS011;3597;42.650;23.386;2022-12-07T01:33:46;2.40;;;2.40;;
7110;SDS011;3597;42.650;23.386;2022-12-07T01:36:13;2.73;;;2.60;;
7110;SDS011;3597;42.650;23.386;2022-12-07T01:38:42;2.53;;;2.40;;
7110;SDS011;3597;42.650;23.386;2022-12-07T01:41:08;2.30;;;2.20;;
7110;SDS011;3597;42.650;23.386;2022-12-07T01:43:34;3.33;;;3.23;;
7110;SDS011;3597;42.650;23.386;2022-12-07T01:46:00;5.93;;;2.73;;
7110;SDS011;3597;42.650;23.386;2022-12-07T01:48:27;2.93;;;2.83;;
7110;SDS011;3597;42.650;23.386;2022-12-07T01:50:56;2.83;;;2.73;;
7110;SDS011;3597;42.650;23.386;2022-12-07T01:53:27;2.30;;;2.30;;
7110;SDS011;3597;42.650;23.386;2022-12-07T01:55:54;2.80;;;2.70;;
7110;SDS011;3597;42.650;23.386;2022-12-07T01:58:19;3.27;;;3.10;;
7110;SDS011;3597;42.650;23.386;2022-12-07T02:00:45;3.07;;;2.83;;
7110;SDS011;3597;42.650;23.386;2022-12-07T02:03:13;3.47;;;3.27;;
7110;SDS011;3597;42.650;23.386;2022-12-07T02:05:40;3.03;;;2.93;;
7110;SDS011;3597;42.650;23.386;2022-12-07T02:08:06;3.10;;;2.90;;
7110;SDS011;3597;42.650;23.386;2022-12-07T02:10:32;3.13;;;3.03;;
7110;SDS011;3597;42.650;23.386;2022-12-07T02:13:00;2.77;;;2.67;;
7110;SDS011;3597;42.650;23.386;2022-12-07T02:15:34;3.23;;;3.03;;
7110;SDS011;3597;42.650;23.386;2022-12-07T02:21:05;3.00;;;2.90;;
7110;SDS011;3597;42.650;23.386;2022-12-07T02:23:44;3.00;;;2.90;;
7110;SDS011;3597;42.650;23.386;2022-12-07T02:26:59;2.73;;;2.60;;
7110;SDS011;3597;42.650;23.386;2022-12-07T02:31:43;3.50;;;3.30;;
7110;SDS011;3597;42.650;23.386;2022-12-07T02:34:26;3.07;;;2.97;;
7110;SDS011;3597;42.650;23.386;2022-12-07T02:37:00;3.87;;;3.57;;
7110;SDS011;3597;42.650;23.386;2022-12-07T02:39:31;5.03;;;3.73;;
7110;SDS011;3597;42.650;23.386;2022-12-07T02:42:02;4.87;;;4.47;;
7110;SDS011;3597;42.650;23.386;2022-12-07T02:44:30;3.93;;;3.63;;
7110;SDS011;3597;42.650;23.386;2022-12-07T02:46:57;3.80;;;3.60;;
7110;SDS011;3597;42.650;23.386;2022-12-07T02:49:27;4.10;;;3.90;;
7110;SDS011;3597;42.650;23.386;2022-12-07T02:51:53;4.07;;;3.77;;
7110;SDS011;3597;42.650;23.386;2022-12-07T02:54:19;3.80;;;3.60;;
7110;SDS011;3597;42.650;23.386;2022-12-07T02:56:48;3.97;;;3.77;;
7110;SDS011;3597;42.650;23.386;2022-12-07T03:10:28;4.47;;;4.17;;
7110;SDS011;3597;42.650;23.386;2022-12-07T03:13:11;4.97;;;4.57;;
7110;SDS011;3597;42.650;23.386;2022-12-07T03:15:53;4.47;;;4.13;;
7110;SDS011;3597;42.650;23.386;2022-12-07T03:18:28;4.03;;;3.93;;
7110;SDS011;3597;42.650;23.386;2022-12-07T03:20:57;8.37;;;4.07;;
7110;SDS011;3597;42.650;23.386;2022-12-07T03:23:25;6.03;;;4.57;;
7110;SDS011;3597;42.650;23.386;2022-12-07T03:25:52;4.70;;;4.40;;
7110;SDS011;3597;42.650;23.386;2022-12-07T03:28:20;4.30;;;4.00;;
7110;SDS011;3597;42.650;23.386;2022-12-07T03:30:54;4.67;;;4.37;;
7110;SDS011;3597;42.650;23.386;2022-12-07T03:41:33;4.60;;;4.30;;
7110;SDS011;3597;42.650;23.386;2022-12-07T03:44:00;3.53;;;3.43;;
7110;SDS011;3597;42.650;23.386;2022-12-07T03:49:21;4.20;;;3.97;;
7110;SDS011;3597;42.650;23.386;2022-12-07T03:51:52;5.03;;;4.60;;
7110;SDS011;3597;42.650;23.386;2022-12-07T03:55:04;5.00;;;3.97;;
7110;SDS011;3597;42.650;23.386;2022-12-07T03:57:46;4.23;;;3.93;;
7110;SDS011;3597;42.650;23.386;2022-12-07T04:00:14;4.00;;;3.80;;
7110;SDS011;3597;42.650;23.386;2022-12-07T04:02:39;4.30;;;4.03;;
7110;SDS011;3597;42.650;23.386;2022-12-07T04:05:06;4.10;;;3.90;;
7110;SDS011;3597;42.650;23.386;2022-12-07T04:07:32;4.40;;;4.20;;
7110;SDS011;3597;42.650;23.386;2022-12-07T04:09:57;4.53;;;4.17;;
7110;SDS011;3597;42.650;23.386;2022-12-07T04:12:23;4.43;;;3.73;;
7110;SDS011;3597;42.650;23.386;2022-12-07T04:14:48;3.57;;;3.37;;
7110;SDS011;3597;42.650;23.386;2022-12-07T04:17:14;3.80;;;3.60;;
7110;SDS011;3597;42.650;23.386;2022-12-07T04:19:39;5.00;;;4.70;;
7110;SDS011;3597;42.650;23.386;2022-12-07T04:22:05;4.17;;;3.87;;
7110;SDS011;3597;42.650;23.386;2022-12-07T04:24:31;4.00;;;3.70;;
7110;SDS011;3597;42.650;23.386;2022-12-07T04:26:56;4.03;;;3.60;;
7110;SDS011;3597;42.650;23.386;2022-12-07T04:29:22;4.03;;;3.73;;
7110;SDS011;3597;42.650;23.386;2022-12-07T04:31:47;4.67;;;4.37;;
7110;SDS011;3597;42.650;23.386;2022-12-07T04:34:13;4.20;;;3.90;;
7110;SDS011;3597;42.650;23.386;2022-12-07T04:36:39;3.63;;;3.40;;
7110;SDS011;3597;42.650;23.386;2022-12-07T04:39:05;3.97;;;3.77;;
7110;SDS011;3597;42.650;23.386;2022-12-07T04:41:31;4.17;;;3.97;;
7110;SDS011;3597;42.650;23.386;2022-12-07T04:43:58;3.80;;;3.53;;
7110;SDS011;3597;42.650;23.386;2022-12-07T04:46:25;4.20;;;4.00;;
7110;SDS011;3597;42.650;23.386;2022-12-07T04:48:51;3.50;;;3.30;;
7110;SDS011;3597;42.650;23.386;2022-12-07T04:51:21;4.60;;;4.30;;
7110;SDS011;3597;42.650;23.386;2022-12-07T04:53:48;4.27;;;3.97;;
7110;SDS011;3597;42.650;23.386;2022-12-07T04:56:14;4.30;;;4.10;;
7110;SDS011;3597;42.650;23.386;2022-12-07T04:58:41;7.17;;;3.87;;
7110;SDS011;3597;42.650;23.386;2022-12-07T05:01:07;4.13;;;3.77;;
7110;SDS011;3597;42.650;23.386;2022-12-07T05:03:33;3.83;;;3.63;;
7110;SDS011;3597;42.650;23.386;2022-12-07T05:05:58;4.00;;;3.70;;
7110;SDS011;3597;42.650;23.386;2022-12-07T05:08:24;3.70;;;3.50;;
7110;SDS011;3597;42.650;23.386;2022-12-07T05:10:49;3.73;;;3.53;;
7110;SDS011;3597;42.650;23.386;2022-12-07T05:13:15;5.30;;;4.80;;
7110;SDS011;3597;42.650;23.386;2022-12-07T05:15:40;5.10;;;4.80;;
7110;SDS011;3597;42.650;23.386;2022-12-07T05:18:08;4.63;;;4.23;;
7110;SDS011;3597;42.650;23.386;2022-12-07T05:20:34;4.80;;;4.50;;
7110;SDS011;3597;42.650;23.386;2022-12-07T05:22:59;3.80;;;3.70;;
7110;SDS011;3597;42.650;23.386;2022-12-07T05:25:24;8.80;;;4.70;;
7110;SDS011;3597;42.650;23.386;2022-12-07T05:27:50;4.60;;;4.30;;
7110;SDS011;3597;42.650;23.386;2022-12-07T05:30:15;4.47;;;3.90;;
7110;SDS011;3597;42.650;23.386;2022-12-07T05:32:41;4.03;;;3.80;;
7110;SDS011;3597;42.650;23.386;2022-12-07T05:35:06;3.83;;;3.63;;
7110;SDS011;3597;42.650;23.386;2022-12-07T05:37:32;4.40;;;3.90;;
7110;SDS011;3597;42.650;23.386;2022-12-07T05:39:58;4.77;;;4.43;;
7110;SDS011;3597;42.650;23.386;2022-12-07T05:42:23;4.10;;;3.90;;
7110;SDS011;3597;42.650;23.386;2022-12-07T05:44:48;4.07;;;3.83;;
7110;SDS011;3597;42.650;23.386;2022-12-07T05:47:14;4.23;;;3.93;;
7110;SDS011;3597;42.650;23.386;2022-12-07T05:49:40;4.60;;;4.30;;
7110;SDS011;3597;42.650;23.386;2022-12-07T05:52:05;4.67;;;4.47;;
7110;SDS011;3597;42.650;23.386;2022-12-07T05:54:49;4.27;;;3.97;;
7110;SDS011;3597;42.650;23.386;2022-12-07T05:57:15;5.50;;;5.20;;
7110;SDS011;3597;42.650;23.386;2022-12-07T05:59:41;4.57;;;4.30;;
7110;SDS011;3597;42.650;23.386;2022-12-07T06:02:07;5.10;;;4.63;;
7110;SDS011;3597;42.650;23.386;2022-12-07T06:04:40;7.43;;;6.83;;
7110;SDS011;3597;42.650;23.386;2022-12-07T06:07:08;5.77;;;5.37;;
7110;SDS011;3597;42.650;23.386;2022-12-07T06:09:34;5.90;;;5.37;;
7110;SDS011;3597;42.650;23.386;2022-12-07T06:11:59;5.57;;;5.07;;
7110;SDS011;3597;42.650;23.386;2022-12-07T06:14:44;7.63;;;5.33;;
7110;SDS011;3597;42.650;23.386;2022-12-07T06:17:10;5.63;;;5.20;;
7110;SDS011;3597;42.650;23.386;2022-12-07T06:19:37;5.23;;;4.93;;
7110;SDS011;3597;42.650;23.386;2022-12-07T06:22:02;8.10;;;5.67;;
7110;SDS011;3597;42.650;23.386;2022-12-07T06:24:29;5.90;;;5.17;;
7110;SDS011;3597;42.650;23.386;2022-12-07T06:26:55;5.67;;;5.07;;
7110;SDS011;3597;42.650;23.386;2022-12-07T06:29:20;5.27;;;4.87;;
7110;SDS011;3597;42.650;23.386;2022-12-07T06:31:46;5.60;;;5.10;;
7110;SDS011;3597;42.650;23.386;2022-12-07T06:34:13;4.23;;;3.93;;
7110;SDS011;3597;42.650;23.386;2022-12-07T06:36:40;4.33;;;4.13;;
7110;SDS011;3597;42.650;23.386;2022-12-07T06:39:05;7.43;;;4.03;;
7110;SDS011;3597;42.650;23.386;2022-12-07T06:41:31;4.70;;;4.50;;
7110;SDS011;3597;42.650;23.386;2022-12-07T06:43:57;5.13;;;4.83;;
7110;SDS011;3597;42.650;23.386;2022-12-07T06:46:22;4.07;;;3.87;;
7110;SDS011;3597;42.650;23.386;2022-12-07T06:48:48;5.47;;;5.07;;
7110;SDS011;3597;42.650;23.386;2022-12-07T06:51:13;4.27;;;4.00;;
7110;SDS011;3597;42.650;23.386;2022-12-07T06:53:38;4.93;;;4.63;;
7110;SDS011;3597;42.650;23.386;2022-12-07T06:56:04;4.50;;;4.20;;
7110;SDS011;3597;42.650;23.386;2022-12-07T06:58:30;3.97;;;3.77;;
7110;SDS011;3597;42.650;23.386;2022-12-07T07:00:55;5.13;;;4.50;;
7110;SDS011;3597;42.650;23.386;2022-12-07T07:03:20;4.20;;;4.10;;
7110;SDS011;3597;42.650;23.386;2022-12-07T07:05:46;5.50;;;4.90;;
7110;SDS011;3597;42.650;23.386;2022-12-07T07:08:11;3.90;;;3.70;;
7110;SDS011;3597;42.650;23.386;2022-12-07T07:10:37;4.23;;;3.93;;
7110;SDS011;3597;42.650;23.386;2022-12-07T07:13:03;6.23;;;4.53;;
7110;SDS011;3597;42.650;23.386;2022-12-07T07:15:29;5.13;;;4.80;;
7110;SDS011;3597;42.650;23.386;2022-12-07T07:17:54;4.47;;;4.17;;
7110;SDS011;3597;42.650;23.386;2022-12-07T07:20:20;7.90;;;4.27;;
7110;SDS011;3597;42.650;23.386;2022-12-07T07:22:45;4.60;;;4.23;;
7110;SDS011;3597;42.650;23.386;2022-12-07T07:25:11;4.37;;;4.17;;
7110;SDS011;3597;42.650;23.386;2022-12-07T07:27:36;4.53;;;4.13;;
7110;SDS011;3597;42.650;23.386;2022-12-07T07:30:02;5.27;;;4.83;;
7110;SDS011;3597;42.650;23.386;2022-12-07T07:32:28;6.50;;;4.10;;
7110;SDS011;3597;42.650;23.386;2022-12-07T07:34:53;5.00;;;3.87;;
7110;SDS011;3597;42.650;23.386;2022-12-07T07:37:18;5.27;;;4.87;;
7110;SDS011;3597;42.650;23.386;2022-12-07T07:39:44;5.00;;;4.60;;
7110;SDS011;3597;42.650;23.386;2022-12-07T07:42:09;4.53;;;4.13;;
7110;SDS011;3597;42.650;23.386;2022-12-07T07:44:34;5.00;;;4.60;;
7110;SDS011;3597;42.650;23.386;2022-12-07T07:47:00;4.83;;;4.43;;
7110;SDS011;3597;42.650;23.386;2022-12-07T07:49:25;5.10;;;4.73;;
7110;SDS011;3597;42.650;23.386;2022-12-07T07:51:51;4.47;;;4.13;;
7110;SDS011;3597;42.650;23.386;2022-12-07T07:54:16;5.13;;;4.83;;
7110;SDS011;3597;42.650;23.386;2022-12-07T07:56:42;4.70;;;4.43;;
7110;SDS011;3597;42.650;23.386;2022-12-07T07:59:07;6.03;;;5.53;;
7110;SDS011;3597;42.650;23.386;2022-12-07T08:01:33;6.47;;;6.00;;
7110;SDS011;3597;42.650;23.386;2022-12-07T08:03:58;6.67;;;6.27;;
7110;SDS011;3597;42.650;23.386;2022-12-07T08:06:23;7.97;;;7.57;;
7110;SDS011;3597;42.650;23.386;2022-12-07T08:08:49;5.57;;;5.40;;
7110;SDS011;3597;42.650;23.386;2022-12-07T08:11:14;6.33;;;5.77;;
7110;SDS011;3597;42.650;23.386;2022-12-07T08:13:40;5.10;;;4.77;;
7110;SDS011;3597;42.650;23.386;2022-12-07T08:16:06;4.97;;;4.67;;
7110;SDS011;3597;42.650;23.386;2022-12-07T08:18:37;4.90;;;4.50;;
7110;SDS011;3597;42.650;23.386;2022-12-07T08:21:03;5.17;;;4.87;;
7110;SDS011;3597;42.650;23.386;2022-12-07T08:23:29;6.03;;;5.77;;
7110;SDS011;3597;42.650;23.386;2022-12-07T08:25:55;4.70;;;4.50;;
7110;SDS011;3597;42.650;23.386;2022-12-07T08:28:25;4.80;;;4.50;;
7110;SDS011;3597;42.650;23.386;2022-12-07T08:30:50;5.10;;;4.77;;
7110;SDS011;3597;42.650;23.386;2022-12-07T08:33:16;5.27;;;4.97;;
7110;SDS011;3597;42.650;23.386;2022-12-07T08:35:42;5.83;;;5.37;;
7110;SDS011;3597;42.650;23.386;2022-12-07T08:38:07;5.67;;;4.90;;
7110;SDS011;3597;42.650;23.386;2022-12-07T08:40:32;4.90;;;4.70;;
7110;SDS011;3597;42.650;23.386;2022-12-07T08:42:58;5.40;;;5.10;;
7110;SDS011;3597;42.650;23.386;2022-12-07T08:45:23;5.23;;;4.83;;
7110;SDS011;3597;42.650;23.386;2022-12-07T08:47:54;4.73;;;4.43;;
7110;SDS011;3597;42.650;23.386;2022-12-07T08:50:23;4.67;;;4.37;;
7110;SDS011;3597;42.650;23.386;2022-12-07T08:52:49;5.97;;;4.70;;
7110;SDS011;3597;42.650;23.386;2022-12-07T08:55:17;5.57;;;5.13;;
7110;SDS011;3597;42.650;23.386;2022-12-07T08:57:42;6.27;;;5.60;;
7110;SDS011;3597;42.650;23.386;2022-12-07T09:00:07;5.13;;;4.83;;
7110;SDS011;3597;42.650;23.386;2022-12-07T09:02:34;5.67;;;5.27;;
7110;SDS011;3597;42.650;23.386;2022-12-07T09:04:59;5.17;;;4.87;;
7110;SDS011;3597;42.650;23.386;2022-12-07T09:07:25;4.70;;;4.40;;
7110;SDS011;3597;42.650;23.386;2022-12-07T09:09:50;4.97;;;4.67;;
7110;SDS011;3597;42.650;23.386;2022-12-07T09:12:15;4.53;;;4.23;;
7110;SDS011;3597;42.650;23.386;2022-12-07T09:14:41;6.47;;;5.77;;
7110;SDS011;3597;42.650;23.386;2022-12-07T09:17:10;4.60;;;4.30;;
7110;SDS011;3597;42.650;23.386;2022-12-07T09:19:36;5.23;;;4.73;;
7110;SDS011;3597;42.650;23.386;2022-12-07T09:22:02;4.70;;;4.50;;
7110;SDS011;3597;42.650;23.386;2022-12-07T09:24:29;4.90;;;4.60;;
7110;SDS011;3597;42.650;23.386;2022-12-07T09:26:55;4.60;;;4.40;;
7110;SDS011;3597;42.650;23.386;2022-12-07T09:29:22;5.43;;;4.73;;
7110;SDS011;3597;42.650;23.386;2022-12-07T09:31:47;4.83;;;4.53;;
7110;SDS011;3597;42.650;23.386;2022-12-07T09:34:12;5.23;;;4.83;;
7110;SDS011;3597;42.650;23.386;2022-12-07T09:36:38;5.33;;;4.93;;
7110;SDS011;3597;42.650;23.386;2022-12-07T09:39:03;5.63;;;5.23;;
7110;SDS011;3597;42.650;23.386;2022-12-07T09:41:30;4.83;;;4.53;;
7110;SDS011;3597;42.650;23.386;2022-12-07T09:43:58;5.33;;;5.03;;
7110;SDS011;3597;42.650;23.386;2022-12-07T09:46:28;5.13;;;4.83;;
7110;SDS011;3597;42.650;23.386;2022-12-07T09:49:00;6.10;;;5.77;;
7110;SDS011;3597;42.650;23.386;2022-12-07T09:51:25;6.20;;;5.70;;
7110;SDS011;3597;42.650;23.386;2022-12-07T09:53:51;5.03;;;4.73;;
7110;SDS011;3597;42.650;23.386;2022-12-07T09:56:18;5.40;;;5.00;;
7110;SDS011;3597;42.650;23.386;2022-12-07T09:58:44;5.00;;;4.80;;
7110;SDS011;3597;42.650;23.386;2022-12-07T10:01:15;5.57;;;5.07;;
7110;SDS011;3597;42.650;23.386;2022-12-07T10:03:47;7.10;;;6.80;;
7110;SDS011;3597;42.650;23.386;2022-12-07T10:06:15;6.00;;;5.47;;
7110;SDS011;3597;42.650;23.386;2022-12-07T10:08:40;4.63;;;4.33;;
7110;SDS011;3597;42.650;23.386;2022-12-07T10:11:08;5.40;;;5.03;;
7110;SDS011;3597;42.650;23.386;2022-12-07T10:13:39;5.10;;;4.80;;
7110;SDS011;3597;42.650;23.386;2022-12-07T10:16:26;4.70;;;4.50;;
7110;SDS011;3597;42.650;23.386;2022-12-07T10:18:57;5.33;;;4.93;;
7110;SDS011;3597;42.650;23.386;2022-12-07T10:21:45;4.37;;;4.17;;
7110;SDS011;3597;42.650;23.386;2022-12-07T10:24:46;4.73;;;4.40;;
7110;SDS011;3597;42.650;23.386;2022-12-07T10:27:22;7.30;;;5.53;;
7110;SDS011;3597;42.650;23.386;2022-12-07T10:29:52;4.77;;;4.17;;
7110;SDS011;3597;42.650;23.386;2022-12-07T10:34:43;4.83;;;4.43;;
7110;SDS011;3597;42.650;23.386;2022-12-07T10:39:48;7.50;;;5.17;;
7110;SDS011;3597;42.650;23.386;2022-12-07T10:42:16;5.77;;;5.33;;
7110;SDS011;3597;42.650;23.386;2022-12-07T10:44:43;5.83;;;5.43;;
7110;SDS011;3597;42.650;23.386;2022-12-07T10:47:13;5.67;;;5.30;;
7110;SDS011;3597;42.650;23.386;2022-12-07T10:49:57;5.13;;;4.80;;
7110;SDS011;3597;42.650;23.386;2022-12-07T11:03:37;4.93;;;4.63;;
7110;SDS011;3597;42.650;23.386;2022-12-07T11:08:59;4.77;;;4.57;;
7110;SDS011;3597;42.650;23.386;2022-12-07T11:11:33;5.10;;;4.80;;
7110;SDS011;3597;42.650;23.386;2022-12-07T11:16:52;5.57;;;5.17;;
7110;SDS011;3597;42.650;23.386;2022-12-07T11:22:09;5.23;;;4.83;;
7110;SDS011;3597;42.650;23.386;2022-12-07T11:24:40;5.10;;;4.70;;
7110;SDS011;3597;42.650;23.386;2022-12-07T11:27:35;5.13;;;4.70;;
7110;SDS011;3597;42.650;23.386;2022-12-07T11:30:13;4.90;;;4.60;;
7110;SDS011;3597;42.650;23.386;2022-12-07T11:35:38;5.00;;;4.70;;
7110;SDS011;3597;42.650;23.386;2022-12-07T11:38:15;5.13;;;4.83;;
7110;SDS011;3597;42.650;23.386;2022-12-07T11:40:48;6.67;;;5.43;;
7110;SDS011;3597;42.650;23.386;2022-12-07T11:43:18;5.03;;;4.73;;
7110;SDS011;3597;42.650;23.386;2022-12-07T11:45:56;6.37;;;5.20;;
7110;SDS011;3597;42.650;23.386;2022-12-07T11:48:28;5.23;;;4.93;;
7110;SDS011;3597;42.650;23.386;2022-12-07T11:50:59;5.97;;;5.57;;
7110;SDS011;3597;42.650;23.386;2022-12-07T12:06:29;9.00;;;7.73;;
7110;SDS011;3597;42.650;23.386;2022-12-07T12:09:13;6.10;;;5.70;;
7110;SDS011;3597;42.650;23.386;2022-12-07T12:19:32;6.33;;;5.80;;
7110;SDS011;3597;42.650;23.386;2022-12-07T12:22:30;8.90;;;6.33;;
7110;SDS011;3597;42.650;23.386;2022-12-07T12:24:47;7.33;;;6.83;;
7110;SDS011;3597;42.650;23.386;2022-12-07T12:27:26;6.20;;;5.90;;
7110;SDS011;3597;42.650;23.386;2022-12-07T12:29:55;7.70;;;7.10;;
7110;SDS011;3597;42.650;23.386;2022-12-07T12:32:24;7.93;;;7.43;;
7110;SDS011;3597;42.650;23.386;2022-12-07T12:46:49;5.90;;;4.70;;
7110;SDS011;3597;42.650;23.386;2022-12-07T12:51:51;4.30;;;4.10;;
7110;SDS011;3597;42.650;23.386;2022-12-07T12:59:30;3.60;;;3.50;;
7110;SDS011;3597;42.650;23.386;2022-12-07T13:12:59;3.43;;;3.33;;
7110;SDS011;3597;42.650;23.386;2022-12-07T13:15:32;4.17;;;3.97;;
7110;SDS011;3597;42.650;23.386;2022-12-07T13:28:40;4.53;;;4.13;;
7110;SDS011;3597;42.650;23.386;2022-12-07T13:33:51;4.17;;;3.83;;
7110;SDS011;3597;42.650;23.386;2022-12-07T13:36:23;4.47;;;4.27;;
7110;SDS011;3597;42.650;23.386;2022-12-07T13:38:55;4.50;;;4.30;;
7110;SDS011;3597;42.650;23.386;2022-12-07T13:41:23;4.37;;;4.17;;
7110;SDS011;3597;42.650;23.386;2022-12-07T13:43:59;6.50;;;5.87;;
7110;SDS011;3597;42.650;23.386;2022-12-07T13:46:31;4.60;;;4.40;;
7110;SDS011;3597;42.650;23.386;2022-12-07T13:49:00;4.37;;;4.17;;
7110;SDS011;3597;42.650;23.386;2022-12-07T13:51:26;4.20;;;4.10;;
7110;SDS011;3597;42.650;23.386;2022-12-07T13:53:54;6.47;;;4.30;;
7110;SDS011;3597;42.650;23.386;2022-12-07T13:56:22;4.80;;;4.40;;
7110;SDS011;3597;42.650;23.386;2022-12-07T13:58:48;4.00;;;3.87;;
7110;SDS011;3597;42.650;23.386;2022-12-07T14:01:14;4.37;;;4.10;;
7110;SDS011;3597;42.650;23.386;2022-12-07T14:03:39;4.30;;;4.13;;
7110;SDS011;3597;42.650;23.386;2022-12-07T14:09:07;5.03;;;4.30;;
7110;SDS011;3597;42.650;23.386;2022-12-07T14:11:33;8.07;;;4.00;;
7110;SDS011;3597;42.650;23.386;2022-12-07T14:14:00;4.23;;;4.03;;
7110;SDS011;3597;42.650;23.386;2022-12-07T14:16:27;4.97;;;4.20;;
7110;SDS011;3597;42.650;23.386;2022-12-07T14:18:58;4.53;;;4.03;;
7110;SDS011;3597;42.650;23.386;2022-12-07T14:21:25;4.17;;;4.07;;
7110;SDS011;3597;42.650;23.386;2022-12-07T14:26:48;4.20;;;3.90;;
7110;SDS011;3597;42.650;23.386;2022-12-07T14:29:22;4.37;;;4.17;;
7110;SDS011;3597;42.650;23.386;2022-12-07T14:31:51;5.80;;;4.70;;
7110;SDS011;3597;42.650;23.386;2022-12-07T14:34:19;4.90;;;4.50;;
7110;SDS011;3597;42.650;23.386;2022-12-07T14:36:45;4.27;;;4.07;;
7110;SDS011;3597;42.650;23.386;2022-12-07T14:39:10;4.53;;;4.23;;
7110;SDS011;3597;42.650;23.386;2022-12-07T14:41:35;4.90;;;4.33;;
7110;SDS011;3597;42.650;23.386;2022-12-07T14:44:16;4.63;;;4.33;;
7110;SDS011;3597;42.650;23.386;2022-12-07T14:46:42;4.27;;;4.07;;
7110;SDS011;3597;42.650;23.386;2022-12-07T14:49:08;4.77;;;4.57;;
7110;SDS011;3597;42.650;23.386;2022-12-07T14:51:33;5.53;;;5.00;;
7110;SDS011;3597;42.650;23.386;2022-12-07T14:54:01;11.17;;;4.90;;
7110;SDS011;3597;42.650;23.386;2022-12-07T14:56:26;7.03;;;4.63;;
7110;SDS011;3597;42.650;23.386;2022-12-07T14:58:52;5.23;;;4.57;;
7110;SDS011;3597;42.650;23.386;2022-12-07T15:01:18;5.20;;;5.00;;
7110;SDS011;3597;42.650;23.386;2022-12-07T15:03:43;6.83;;;6.53;;
7110;SDS011;3597;42.650;23.386;2022-12-07T15:06:18;5.80;;;5.40;;
7110;SDS011;3597;42.650;23.386;2022-12-07T15:08:43;5.27;;;4.87;;
7110;SDS011;3597;42.650;23.386;2022-12-07T15:11:11;4.67;;;4.57;;
7110;SDS011;3597;42.650;23.386;2022-12-07T15:13:38;8.07;;;7.00;;
7110;SDS011;3597;42.650;23.386;2022-12-07T15:16:26;8.03;;;7.57;;
7110;SDS011;3597;42.650;23.386;2022-12-07T15:18:51;7.53;;;7.13;;
7110;SDS011;3597;42.650;23.386;2022-12-07T15:21:17;7.20;;;6.27;;
7110;SDS011;3597;42.650;23.386;2022-12-07T15:23:42;9.33;;;8.80;;
7110;SDS011;3597;42.650;23.386;2022-12-07T15:26:09;7.00;;;6.53;;
7110;SDS011;3597;42.650;23.386;2022-12-07T15:28:35;7.03;;;6.57;;
7110;SDS011;3597;42.650;23.386;2022-12-07T15:31:00;7.13;;;6.67;;
7110;SDS011;3597;42.650;23.386;2022-12-07T15:33:25;6.20;;;5.93;;
7110;SDS011;3597;42.650;23.386;2022-12-07T15:35:51;6.10;;;5.83;;
7110;SDS011;3597;42.650;23.386;2022-12-07T15:38:16;5.90;;;5.60;;
7110;SDS011;3597;42.650;23.386;2022-12-07T15:40:41;5.57;;;5.27;;
7110;SDS011;3597;42.650;23.386;2022-12-07T15:43:10;7.10;;;4.97;;
7110;SDS011;3597;42.650;23.386;2022-12-07T15:45:55;5.53;;;5.13;;
7110;SDS011;3597;42.650;23.386;2022-12-07T15:48:20;5.33;;;4.93;;
7110;SDS011;3597;42.650;23.386;2022-12-07T15:50:46;5.43;;;5.10;;
7110;SDS011;3597;42.650;23.386;2022-12-07T15:53:11;4.10;;;3.93;;
7110;SDS011;3597;42.650;23.386;2022-12-07T15:55:38;5.13;;;4.83;;
7110;SDS011;3597;42.650;23.386;2022-12-07T15:58:04;6.47;;;5.40;;
7110;SDS011;3597;42.650;23.386;2022-12-07T16:00:30;5.80;;;5.30;;
7110;SDS011;3597;42.650;23.386;2022-12-07T16:02:55;5.10;;;4.70;;
7110;SDS011;3597;42.650;23.386;2022-12-07T16:05:21;5.87;;;5.37;;
7110;SDS011;3597;42.650;23.386;2022-12-07T16:07:46;5.33;;;4.90;;
7110;SDS011;3597;42.650;23.386;2022-12-07T16:10:12;5.73;;;5.27;;
7110;SDS011;3597;42.650;23.386;2022-12-07T16:12:37;4.73;;;4.43;;
7110;SDS011;3597;42.650;23.386;2022-12-07T16:15:03;5.07;;;4.67;;
7110;SDS011;3597;42.650;23.386;2022-12-07T16:17:29;5.07;;;4.73;;
7110;SDS011;3597;42.650;23.386;2022-12-07T16:19:54;4.37;;;4.07;;
7110;SDS011;3597;42.650;23.386;2022-12-07T16:22:20;6.17;;;5.67;;
7110;SDS011;3597;42.650;23.386;2022-12-07T16:24:45;8.70;;;5.17;;
7110;SDS011;3597;42.650;23.386;2022-12-07T16:27:10;5.67;;;5.37;;
7110;SDS011;3597;42.650;23.386;2022-12-07T16:29:36;6.10;;;5.47;;
7110;SDS011;3597;42.650;23.386;2022-12-07T16:32:01;5.30;;;4.80;;
7110;SDS011;3597;42.650;23.386;2022-12-07T16:34:27;5.53;;;5.13;;
7110;SDS011;3597;42.650;23.386;2022-12-07T16:36:52;4.77;;;4.57;;
7110;SDS011;3597;42.650;23.386;2022-12-07T16:39:18;4.23;;;3.93;;
7110;SDS011;3597;42.650;23.386;2022-12-07T16:41:43;5.37;;;4.60;;
7110;SDS011;3597;42.650;23.386;2022-12-07T16:44:09;4.43;;;4.23;;
7110;SDS011;3597;42.650;23.386;2022-12-07T16:46:36;4.87;;;4.53;;
7110;SDS011;3597;42.650;23.386;2022-12-07T16:49:02;4.73;;;4.30;;
7110;SDS011;3597;42.650;23.386;2022-12-07T16:51:27;5.37;;;5.07;;
7110;SDS011;3597;42.650;23.386;2022-12-07T16:53:53;6.13;;;4.63;;
7110;SDS011;3597;42.650;23.386;2022-12-07T16:56:19;7.33;;;4.83;;
7110;SDS011;3597;42.650;23.386;2022-12-07T16:58:44;5.10;;;4.73;;
7110;SDS011;3597;42.650;23.386;2022-12-07T17:01:12;6.27;;;5.50;;
7110;SDS011;3597;42.650;23.386;2022-12-07T17:03:39;5.27;;;4.87;;
7110;SDS011;3597;42.650;23.386;2022-12-07T17:06:10;6.50;;;5.10;;
7110;SDS011;3597;42.650;23.386;2022-12-07T17:08:38;5.10;;;4.70;;
7110;SDS011;3597;42.650;23.386;2022-12-07T17:11:08;5.07;;;4.57;;